createdAt,value
2022-09-18T00:01:33.244Z,4.72
2022-09-18T00:04:04.253Z,6.07
2022-09-18T00:06:35.732Z,5.63
2022-09-18T00:09:06.806Z,4.35
2022-09-18T00:11:39.369Z,6.07
2022-09-18T00:14:09.790Z,5.60
2022-09-18T00:16:37.804Z,4.40
2022-09-18T00:19:05.581Z,5.28
2022-09-18T00:21:32.896Z,7.50
2022-09-18T00:24:01.631Z,5.32
2022-09-18T00:26:28.790Z,6.18
2022-09-18T00:28:57.934Z,8.73
2022-09-18T00:31:29.756Z,6.00
2022-09-18T00:34:00.899Z,4.07
2022-09-18T00:36:29.862Z,7.97
2022-09-18T00:38:59.392Z,2.25
2022-09-18T00:41:37.206Z,3.38
2022-09-18T00:44:37.666Z,5.43
2022-09-18T00:47:10.609Z,3.30
2022-09-18T00:52:13.638Z,6.85
2022-09-18T00:54:46.539Z,7.07
2022-09-18T00:57:25.300Z,8.20
2022-09-18T00:59:53.135Z,6.47
2022-09-18T01:02:20.279Z,4.95
2022-09-18T01:04:48.846Z,6.30
2022-09-18T01:07:39.428Z,5.45
2022-09-18T01:10:57.309Z,3.38
2022-09-18T01:13:54.806Z,5.22
2022-09-18T01:16:57.663Z,4.80
2022-09-18T01:19:59.496Z,3.87
2022-09-18T01:22:50.435Z,4.60
2022-09-18T01:25:31.501Z,7.55
2022-09-18T01:28:32.146Z,2.90
2022-09-18T01:31:10.470Z,3.38
2022-09-18T01:34:00.227Z,3.28
2022-09-18T01:36:30.818Z,5.78
2022-09-18T01:39:28.541Z,3.65
2022-09-18T01:41:57.288Z,3.92
2022-09-18T01:44:29.878Z,4.30
2022-09-18T01:46:59.247Z,4.43
2022-09-18T01:49:32.726Z,3.03
2022-09-18T01:52:15.603Z,2.90
2022-09-18T01:54:45.479Z,14.27
2022-09-18T01:57:46.623Z,4.07
2022-09-18T02:00:14.397Z,5.63
2022-09-18T02:02:51.790Z,6.45
2022-09-18T02:05:28.507Z,3.08
2022-09-18T02:08:26.911Z,4.13
2022-09-18T02:11:07.538Z,5.15
2022-09-18T02:14:05.640Z,7.57
2022-09-18T02:16:43.105Z,5.55
2022-09-18T02:19:20.848Z,5.88
2022-09-18T02:21:50.075Z,6.60
2022-09-18T02:24:20.754Z,2.78
2022-09-18T02:26:51.938Z,2.63
2022-09-18T02:29:20.246Z,2.90
2022-09-18T02:31:49.151Z,5.95
2022-09-18T02:34:17.318Z,4.25
2022-09-18T02:37:11.292Z,3.70
2022-09-18T02:40:22.206Z,3.22
2022-09-18T02:43:14.167Z,3.05
2022-09-18T02:46:19.489Z,3.72
2022-09-18T02:49:07.697Z,5.63
2022-09-18T02:52:08.098Z,5.13
2022-09-18T02:54:50.527Z,5.90
2022-09-18T02:57:28.739Z,4.60
2022-09-18T02:59:59.264Z,5.50
2022-09-18T03:02:26.647Z,4.15
2022-09-18T03:04:53.809Z,7.85
2022-09-18T03:07:20.960Z,6.22
2022-09-18T03:09:48.001Z,1.65
2022-09-18T03:12:14.912Z,5.50
2022-09-18T03:14:42.096Z,6.38
2022-09-18T03:17:10.210Z,4.47
2022-09-18T03:19:37.041Z,3.53
2022-09-18T03:22:03.980Z,9.77
2022-09-18T03:24:31.074Z,7.05
2022-09-18T03:26:57.980Z,9.93
2022-09-18T03:29:27.695Z,5.22
2022-09-18T03:31:55.188Z,9.55
2022-09-18T03:34:22.202Z,5.93
2022-09-18T03:36:49.006Z,6.25
2022-09-18T03:39:16.423Z,7.53
2022-09-18T03:41:43.371Z,6.07
2022-09-18T03:44:10.275Z,4.78
2022-09-18T03:46:37.194Z,9.48
2022-09-18T03:49:04.044Z,7.85
2022-09-18T03:51:30.941Z,15.60
2022-09-18T03:53:58.785Z,7.68
2022-09-18T03:56:25.718Z,6.85
2022-09-18T03:58:53.554Z,5.10
2022-09-18T04:01:20.387Z,7.85
2022-09-18T04:03:48.143Z,10.02
2022-09-18T04:06:14.977Z,7.22
2022-09-18T04:08:41.853Z,4.90
2022-09-18T04:11:08.781Z,10.15
2022-09-18T04:13:35.802Z,4.72
2022-09-18T04:16:02.875Z,9.10
2022-09-18T04:18:31.071Z,5.93
2022-09-18T04:20:58.046Z,6.30
2022-09-18T04:23:27.858Z,12.63
2022-09-18T04:25:54.662Z,11.23
2022-09-18T04:28:21.587Z,6.68
2022-09-18T04:30:49.619Z,4.45
2022-09-18T04:33:16.514Z,7.50
2022-09-18T04:35:43.326Z,4.38
2022-09-18T04:38:16.127Z,3.95
2022-09-18T04:40:43.164Z,10.57
2022-09-18T04:43:11.612Z,9.13
2022-09-18T04:45:38.501Z,8.38
2022-09-18T04:48:05.470Z,8.70
2022-09-18T04:50:32.372Z,12.25
2022-09-18T04:53:02.379Z,8.73
2022-09-18T04:55:29.814Z,8.60
2022-09-18T04:57:56.589Z,7.97
2022-09-18T05:00:23.645Z,9.48
2022-09-18T05:02:50.449Z,6.30
2022-09-18T05:05:17.427Z,9.40
2022-09-18T05:07:44.229Z,9.45
2022-09-18T05:10:11.180Z,7.78
2022-09-18T05:12:41.810Z,7.32
2022-09-18T05:15:09.141Z,5.03
2022-09-18T05:17:35.905Z,12.27
2022-09-18T05:20:03.019Z,6.53
2022-09-18T05:22:30.880Z,5.57
2022-09-18T05:24:57.658Z,6.55
2022-09-18T05:27:26.918Z,8.00
2022-09-18T05:29:54.012Z,5.70
2022-09-18T05:32:20.965Z,4.55
2022-09-18T05:34:52.020Z,6.82
2022-09-18T05:37:19.480Z,9.45
2022-09-18T05:39:46.390Z,6.28
2022-09-18T05:42:13.238Z,6.22
2022-09-18T05:44:40.028Z,8.27
2022-09-18T05:47:06.935Z,8.07
2022-09-18T05:49:33.727Z,5.10
2022-09-18T05:52:00.680Z,4.75
2022-09-18T05:54:27.455Z,7.63
2022-09-18T05:56:54.266Z,4.55
2022-09-18T05:59:21.318Z,7.40
2022-09-18T06:01:48.186Z,6.28
2022-09-18T06:04:15.180Z,6.82
2022-09-18T06:06:41.970Z,6.93
2022-09-18T06:09:08.760Z,8.90
2022-09-18T06:11:35.559Z,5.38
2022-09-18T06:14:02.479Z,4.20
2022-09-18T06:16:29.352Z,8.73
2022-09-18T06:18:56.247Z,3.95
2022-09-18T06:21:23.175Z,9.32
2022-09-18T06:23:50.027Z,5.75
2022-09-18T06:26:16.941Z,8.02
2022-09-18T06:28:44.273Z,6.60
2022-09-18T06:31:11.090Z,7.15
2022-09-18T06:33:37.962Z,5.32
2022-09-18T06:36:08.918Z,10.68
2022-09-18T06:38:36.103Z,5.40
2022-09-18T06:41:03.044Z,9.88
2022-09-18T06:43:29.906Z,6.32
2022-09-18T06:45:58.387Z,7.50
2022-09-18T06:48:25.794Z,4.82
2022-09-18T06:50:58.440Z,7.70
2022-09-18T06:53:26.405Z,9.15
2022-09-18T06:55:58.707Z,4.38
2022-09-18T06:58:25.663Z,9.48
2022-09-18T07:00:52.714Z,8.63
2022-09-18T07:03:19.521Z,14.70
2022-09-18T07:05:46.610Z,7.88
2022-09-18T07:08:13.939Z,7.30
2022-09-18T07:10:41.159Z,10.48
2022-09-18T07:13:09.240Z,9.30
2022-09-18T07:15:36.275Z,7.30
2022-09-18T07:18:05.171Z,7.57
2022-09-18T07:20:32.020Z,8.32
2022-09-18T07:23:01.198Z,8.82
2022-09-18T07:25:31.429Z,5.97
2022-09-18T07:28:10.044Z,6.47
2022-09-18T07:30:38.465Z,10.13
2022-09-18T07:33:08.566Z,7.53
2022-09-18T07:35:36.350Z,6.35
2022-09-18T07:38:06.197Z,5.95
2022-09-18T07:40:33.746Z,6.75
2022-09-18T07:43:07.801Z,12.48
2022-09-18T07:45:35.623Z,4.88
2022-09-18T07:48:05.226Z,8.52
2022-09-18T07:50:32.744Z,9.07
2022-09-18T07:53:02.517Z,7.72
2022-09-18T07:55:29.580Z,7.47
2022-09-18T07:58:04.598Z,10.30
2022-09-18T08:00:35.723Z,10.40
2022-09-18T08:03:03.290Z,6.25
2022-09-18T08:05:30.762Z,6.75
2022-09-18T08:08:06.284Z,7.55
2022-09-18T08:10:34.432Z,5.07
2022-09-18T08:13:02.717Z,5.65
2022-09-18T08:15:31.532Z,6.57
2022-09-18T08:17:58.579Z,10.48
2022-09-18T08:20:25.675Z,8.05
2022-09-18T08:22:55.656Z,5.18
2022-09-18T08:25:23.186Z,8.90
2022-09-18T08:27:50.034Z,5.80
2022-09-18T08:30:17.381Z,6.10
2022-09-18T08:32:44.227Z,5.55
2022-09-18T08:35:11.226Z,7.95
2022-09-18T08:37:38.176Z,6.32
2022-09-18T08:40:05.608Z,7.72
2022-09-18T08:42:51.827Z,6.82
2022-09-18T08:45:18.588Z,9.32
2022-09-18T08:47:59.272Z,4.53
2022-09-18T08:50:38.684Z,7.45
2022-09-18T08:53:25.585Z,5.32
2022-09-18T08:55:54.288Z,5.20
2022-09-18T08:58:44.482Z,6.72
2022-09-18T09:01:19.980Z,7.82
2022-09-18T09:03:49.854Z,5.55
2022-09-18T09:06:57.797Z,6.30
2022-09-18T09:10:00.503Z,8.75
2022-09-18T09:12:55.616Z,6.65
2022-09-18T09:16:05.431Z,4.95
2022-09-18T09:18:46.248Z,9.68
2022-09-18T09:21:23.478Z,8.75
2022-09-18T09:24:21.958Z,5.20
2022-09-18T09:26:49.990Z,6.57
2022-09-18T09:29:40.325Z,4.45
2022-09-18T09:32:23.007Z,5.57
2022-09-18T09:35:01.228Z,4.85
2022-09-18T09:37:39.924Z,6.07
2022-09-18T09:40:25.741Z,5.97
2022-09-18T09:43:06.401Z,5.57
2022-09-18T09:45:47.776Z,6.05
2022-09-18T09:48:29.979Z,5.32
2022-09-18T09:51:05.570Z,3.78
2022-09-18T09:53:32.666Z,4.18
2022-09-18T09:56:25.031Z,8.55
2022-09-18T09:59:16.071Z,3.42
2022-09-18T10:02:33.910Z,6.53
2022-09-18T10:05:30.113Z,8.65
2022-09-18T10:08:14.705Z,4.53
2022-09-18T10:10:56.384Z,4.95
2022-09-18T10:13:36.469Z,6.72
2022-09-18T10:16:12.114Z,6.05
2022-09-18T10:18:44.525Z,5.03
2022-09-18T10:21:13.491Z,6.45
2022-09-18T10:23:50.001Z,6.60
2022-09-18T10:26:36.337Z,6.35
2022-09-18T10:29:03.175Z,4.45
2022-09-18T10:31:54.159Z,3.25
2022-09-18T10:34:48.775Z,4.60
2022-09-18T10:37:39.180Z,3.22
2022-09-18T10:40:29.400Z,3.25
2022-09-18T10:42:57.161Z,7.15
2022-09-18T10:45:28.122Z,5.00
2022-09-18T10:48:21.193Z,3.50
2022-09-18T10:51:02.632Z,3.20
2022-09-18T10:53:32.583Z,6.85
2022-09-18T10:56:20.678Z,5.40
2022-09-18T10:58:47.817Z,6.45
2022-09-18T11:01:15.488Z,4.70
2022-09-18T11:03:48.028Z,5.38
2022-09-18T11:06:24.742Z,6.38
2022-09-18T11:08:56.889Z,4.65
2022-09-18T11:11:36.858Z,4.70
2022-09-18T11:14:16.527Z,4.68
2022-09-18T11:16:48.656Z,5.18
2022-09-18T11:19:28.674Z,3.08
2022-09-18T11:22:05.701Z,2.83
2022-09-18T11:24:35.725Z,4.57
2022-09-18T11:27:17.332Z,4.85
2022-09-18T11:29:44.258Z,4.97
2022-09-18T11:32:31.902Z,2.28
2022-09-18T11:35:03.988Z,3.63
2022-09-18T11:37:33.744Z,4.85
2022-09-18T11:40:08.824Z,3.97
2022-09-18T11:42:44.897Z,7.05
2022-09-18T11:45:39.852Z,4.20
2022-09-18T11:48:34.663Z,3.00
2022-09-18T11:51:09.722Z,3.88
2022-09-18T11:53:43.493Z,5.60
2022-09-18T11:56:21.076Z,2.10
2022-09-18T11:58:57.081Z,5.15
2022-09-18T12:01:46.613Z,6.25
2022-09-18T12:04:29.806Z,6.90
2022-09-18T12:07:40.526Z,2.70
2022-09-18T12:10:44.134Z,3.75
2022-09-18T12:13:32.367Z,5.15
2022-09-18T12:16:46.280Z,2.92
2022-09-18T12:19:43.792Z,2.45
2022-09-18T12:22:37.461Z,3.22
2022-09-18T12:25:13.452Z,7.47
2022-09-18T12:28:29.589Z,3.42
2022-09-18T12:31:06.420Z,5.28
2022-09-18T12:34:02.362Z,4.80
2022-09-18T12:36:46.351Z,3.70
2022-09-18T12:39:20.234Z,3.40
2022-09-18T12:42:21.476Z,4.75
2022-09-18T12:45:07.126Z,3.03
2022-09-18T12:47:46.175Z,3.05
2022-09-18T12:51:04.901Z,2.53
2022-09-18T12:54:09.523Z,4.97
2022-09-18T12:56:52.694Z,7.32
2022-09-18T12:59:28.862Z,6.07
2022-09-18T13:02:12.251Z,5.43
2022-09-18T13:04:47.245Z,3.53
2022-09-18T13:07:28.673Z,2.40
2022-09-18T13:10:03.965Z,5.97
2022-09-18T13:12:59.155Z,4.38
2022-09-18T13:15:57.778Z,5.75
2022-09-18T13:18:48.088Z,3.95
2022-09-18T13:21:28.680Z,2.72
2022-09-18T13:23:57.070Z,5.50
2022-09-18T13:26:27.973Z,4.10
2022-09-18T13:28:55.033Z,2.60
2022-09-18T13:31:35.353Z,3.25
2022-09-18T13:34:16.299Z,5.80
2022-09-18T13:36:46.048Z,4.03
2022-09-18T13:39:28.841Z,4.45
2022-09-18T13:44:29.573Z,3.78
2022-09-18T13:47:12.128Z,5.10
2022-09-18T13:49:55.311Z,3.30
2022-09-18T13:52:34.355Z,4.43
2022-09-18T13:55:13.162Z,2.08
2022-09-18T13:57:43.292Z,3.97
2022-09-18T14:00:36.483Z,2.05
2022-09-18T14:03:12.103Z,3.30
2022-09-18T14:05:41.207Z,3.63
2022-09-18T14:08:21.411Z,3.65
2022-09-18T14:11:05.361Z,7.80
2022-09-18T14:13:36.996Z,2.25
2022-09-18T14:16:12.517Z,5.28
2022-09-18T14:18:48.195Z,2.47
2022-09-18T14:21:18.015Z,4.40
2022-09-18T14:23:45.945Z,1.98
2022-09-18T14:26:30.861Z,2.58
2022-09-18T14:29:10.310Z,2.28
2022-09-18T14:31:52.950Z,5.05
2022-09-18T14:34:40.839Z,1.92
2022-09-18T14:37:37.770Z,3.03
2022-09-18T14:40:20.861Z,4.85
2022-09-18T14:42:48.815Z,4.30
2022-09-18T14:45:20.759Z,3.83
2022-09-18T14:47:49.973Z,2.90
2022-09-18T14:50:36.694Z,2.50
2022-09-18T14:53:24.617Z,2.08
2022-09-18T14:56:18.540Z,2.17
2022-09-18T14:58:47.761Z,5.35
2022-09-18T15:01:21.712Z,2.83
2022-09-18T15:03:52.148Z,1.48
2022-09-18T15:06:34.339Z,3.42
2022-09-18T15:09:02.519Z,2.83
2022-09-18T15:11:46.685Z,3.35
2022-09-18T15:14:32.689Z,4.97
2022-09-18T15:17:04.018Z,2.45
2022-09-18T15:19:32.936Z,2.30
2022-09-18T15:22:00.866Z,2.72
2022-09-18T15:24:30.083Z,3.95
2022-09-18T15:27:02.456Z,2.97
2022-09-18T15:29:58.593Z,3.75
2022-09-18T15:32:38.602Z,1.70
2022-09-18T15:35:08.880Z,3.05
2022-09-18T15:37:38.243Z,2.50
2022-09-18T15:40:34.331Z,2.03
2022-09-18T15:43:35.878Z,3.65
2022-09-18T15:46:25.744Z,3.97
2022-09-18T15:48:56.190Z,3.22
2022-09-18T15:51:25.793Z,4.97
2022-09-18T15:54:10.699Z,2.50
2022-09-18T15:56:48.130Z,6.68
2022-09-18T15:59:33.503Z,4.38
2022-09-18T16:02:08.010Z,4.75
2022-09-18T16:04:36.050Z,2.20
2022-09-18T16:07:25.346Z,3.72
2022-09-18T16:09:52.471Z,3.22
2022-09-18T16:12:37.938Z,6.35
2022-09-18T16:15:20.649Z,2.40
2022-09-18T16:18:29.141Z,2.95
2022-09-18T16:20:57.649Z,3.15
2022-09-18T16:23:30.162Z,3.22
2022-09-18T16:26:28.012Z,3.60
2022-09-18T16:28:59.269Z,2.72
2022-09-18T16:31:30.050Z,1.52
2022-09-18T16:34:20.200Z,7.68
2022-09-18T16:36:47.827Z,3.15
2022-09-18T16:39:18.839Z,1.20
2022-09-18T16:41:46.292Z,3.53
2022-09-18T16:44:15.224Z,2.50
2022-09-18T16:46:54.327Z,2.97
2022-09-18T16:49:26.489Z,4.20
2022-09-18T16:51:55.135Z,2.38
2022-09-18T16:54:21.986Z,3.20
2022-09-18T16:56:56.579Z,3.40
2022-09-18T16:59:29.804Z,1.90
2022-09-18T17:02:04.148Z,2.45
2022-09-18T17:04:32.948Z,2.20
2022-09-18T17:07:00.147Z,2.88
2022-09-18T17:09:27.330Z,1.05
2022-09-18T17:11:55.329Z,4.57
2022-09-18T17:14:23.403Z,4.50
2022-09-18T17:16:51.003Z,1.40
2022-09-18T17:19:17.873Z,5.53
2022-09-18T17:21:45.250Z,3.25
2022-09-18T17:24:12.273Z,1.15
2022-09-18T17:26:41.786Z,1.67
2022-09-18T17:29:11.418Z,2.90
2022-09-18T17:31:38.552Z,2.05
2022-09-18T17:34:05.804Z,2.25
2022-09-18T17:36:32.776Z,1.55
2022-09-18T17:39:02.317Z,1.73
2022-09-18T17:41:29.477Z,3.88
2022-09-18T17:43:56.409Z,3.33
2022-09-18T17:46:23.407Z,3.08
2022-09-18T17:48:55.365Z,3.35
2022-09-18T17:51:27.727Z,1.85
2022-09-18T17:54:03.095Z,3.28
2022-09-18T17:56:32.538Z,3.42
2022-09-18T17:59:05.450Z,1.20
2022-09-18T18:04:05.500Z,4.13
2022-09-18T18:06:33.932Z,1.55
2022-09-18T18:09:01.495Z,3.45
2022-09-18T18:11:29.567Z,4.93
2022-09-18T18:13:56.591Z,4.82
2022-09-18T18:16:30.512Z,2.55
2022-09-18T18:19:05.349Z,2.72
2022-09-18T18:21:33.930Z,1.33
2022-09-18T18:24:09.047Z,2.25
2022-09-18T18:26:40.818Z,1.15
2022-09-18T18:29:11.015Z,2.45
2022-09-18T18:31:43.280Z,2.33
2022-09-18T18:34:12.011Z,5.30
2022-09-18T18:36:41.444Z,1.92
2022-09-18T18:39:12.236Z,2.10
2022-09-18T18:41:40.040Z,1.38
2022-09-18T18:44:07.669Z,3.28
2022-09-18T18:46:36.801Z,1.30
2022-09-18T18:49:10.422Z,1.70
2022-09-18T18:51:43.640Z,4.43
2022-09-18T18:54:11.369Z,1.77
2022-09-18T18:56:39.144Z,3.75
2022-09-18T18:59:10.201Z,5.68
2022-09-18T19:01:38.044Z,2.75
2022-09-18T19:04:12.354Z,2.05
2022-09-18T19:06:43.126Z,3.47
2022-09-18T19:09:21.000Z,2.53
2022-09-18T19:11:49.905Z,4.18
2022-09-18T19:14:23.352Z,4.50
2022-09-18T19:16:51.336Z,2.00
2022-09-18T19:19:21.956Z,3.22
2022-09-18T19:21:48.845Z,2.78
2022-09-18T19:24:18.544Z,3.70
2022-09-18T19:26:47.809Z,3.55
2022-09-18T19:29:17.652Z,3.03
2022-09-18T19:31:46.745Z,1.85
2022-09-18T19:34:18.530Z,2.60
2022-09-18T19:36:47.181Z,2.03
2022-09-18T19:39:14.857Z,1.75
2022-09-18T19:42:01.339Z,2.63
2022-09-18T19:44:36.919Z,3.40
2022-09-18T19:47:20.000Z,3.95
2022-09-18T19:52:21.465Z,1.85
2022-09-18T19:54:52.047Z,2.55
2022-09-18T19:57:20.304Z,1.85
2022-09-18T19:59:47.633Z,1.58
2022-09-18T20:02:19.418Z,2.25
2022-09-18T20:04:46.717Z,3.60
2022-09-18T20:07:13.927Z,2.05
2022-09-18T20:09:41.395Z,2.58
2022-09-18T20:12:09.478Z,3.15
2022-09-18T20:14:36.417Z,1.25
2022-09-18T20:17:03.678Z,1.60
2022-09-18T20:19:31.114Z,2.55
2022-09-18T20:22:02.913Z,1.30
2022-09-18T20:24:32.073Z,3.72
2022-09-18T20:27:00.060Z,3.97
2022-09-18T20:29:27.508Z,3.53
2022-09-18T20:31:54.778Z,3.20
2022-09-18T20:34:24.771Z,2.22
2022-09-18T20:36:52.236Z,1.65
2022-09-18T20:39:19.795Z,3.70
2022-09-18T20:41:47.589Z,1.52
2022-09-18T20:44:15.015Z,3.72
2022-09-18T20:46:43.036Z,2.65
2022-09-18T20:49:11.582Z,3.50
2022-09-18T20:51:38.474Z,4.57
2022-09-18T20:54:08.033Z,3.78
2022-09-18T20:56:42.066Z,2.00
2022-09-18T20:59:16.477Z,2.17
2022-09-18T21:01:45.783Z,1.40
2022-09-18T21:04:19.620Z,2.35
2022-09-18T21:06:57.125Z,4.45
2022-09-18T21:09:28.637Z,4.00
2022-09-18T21:11:58.707Z,5.50
2022-09-18T21:14:27.434Z,3.05
2022-09-18T21:16:55.153Z,0.98
2022-09-18T21:19:26.102Z,3.47
2022-09-18T21:21:53.066Z,3.53
2022-09-18T21:24:22.048Z,2.67
2022-09-18T21:26:49.760Z,2.72
2022-09-18T21:29:23.729Z,3.85
2022-09-18T21:31:59.777Z,2.20
2022-09-18T21:34:30.071Z,1.70
2022-09-18T21:37:07.738Z,2.20
2022-09-18T21:39:35.709Z,0.75
2022-09-18T21:42:07.262Z,0.65
2022-09-18T21:44:37.712Z,0.35
2022-09-18T21:47:07.492Z,2.70
2022-09-18T21:49:35.206Z,1.27
2022-09-18T21:52:06.213Z,1.10
2022-09-18T21:54:33.730Z,0.82
2022-09-18T21:57:01.306Z,1.25
2022-09-18T21:59:30.536Z,0.45
2022-09-18T22:01:59.268Z,0.47
2022-09-18T22:04:30.556Z,1.00
2022-09-18T22:06:59.930Z,0.28
2022-09-18T22:09:31.776Z,2.10
2022-09-18T22:12:01.174Z,0.95
2022-09-18T22:14:32.614Z,0.75
2022-09-18T22:17:02.923Z,2.20
2022-09-18T22:19:30.364Z,0.75
2022-09-18T22:21:57.292Z,1.10
2022-09-18T22:24:27.075Z,1.30
2022-09-18T22:26:59.432Z,1.75
2022-09-18T22:29:32.636Z,2.85
2022-09-18T22:32:00.006Z,1.40
2022-09-18T22:34:30.918Z,1.55
2022-09-18T22:36:59.630Z,1.40
2022-09-18T22:39:27.079Z,1.55
2022-09-18T22:41:54.011Z,0.50
2022-09-18T22:44:22.661Z,1.70
2022-09-18T22:46:54.684Z,2.05
2022-09-18T22:49:23.474Z,1.10
2022-09-18T22:51:51.359Z,1.15
2022-09-18T22:54:26.344Z,2.25
2022-09-18T22:56:54.053Z,2.28
2022-09-18T22:59:24.359Z,1.02
2022-09-18T23:01:59.228Z,1.08
2022-09-18T23:04:29.298Z,0.75
2022-09-18T23:06:57.633Z,1.25
2022-09-18T23:09:25.340Z,0.68
2022-09-18T23:11:53.260Z,0.68
2022-09-18T23:14:25.981Z,1.55
2022-09-18T23:16:53.176Z,1.13
2022-09-18T23:19:27.956Z,1.25
2022-09-18T23:21:55.897Z,3.50
2022-09-18T23:24:23.872Z,1.02
2022-09-18T23:26:53.815Z,1.17
2022-09-18T23:29:23.084Z,1.85
2022-09-18T23:31:57.411Z,0.68
2022-09-18T23:34:29.663Z,1.50
2022-09-18T23:36:58.192Z,1.98
2022-09-18T23:39:33.948Z,1.75
2022-09-18T23:42:02.577Z,1.58
2022-09-18T23:44:31.422Z,0.82
2022-09-18T23:46:59.908Z,4.43
2022-09-18T23:49:27.685Z,1.63
2022-09-18T23:51:55.921Z,1.73
2022-09-18T23:54:26.115Z,2.03
2022-09-18T23:56:54.206Z,3.95
2022-09-18T23:59:23.554Z,1.65
